• Join FlightAware (Why Join?)
  • Login
  • US Flag 
03:15AM EDT


 

Airport Tracker/Info


-or-


 

Live Flight TrackerFlight Track Log ✈ AAL1554 ✈ 13-Jun-2013 ✈ KDFW - KBWI

Flight Track Log - Related Links

Times and Time Zones

All times are in EDT time to prevent confusion due to time zone crossing. See the AAL1554 flight status page for this flight to view local times or setup timezone preferences in your user account.

Time Position Orientation Groundspeed Altitude Reporting Facility
EDT Latitude Longitude Course Direction KTS MPH feet Rate Location/Type
08:32PM 32.8570 -97.0280 169° South 181 208 2,200  Level FlightAware
08:33PM 32.8350 -97.0190 161° South 205 236 2,800 1,260 Climbing FlightAware
08:33PM 32.8060 -97.0060 159° South 241 277 3,400 1,680 Climbing FlightAware
08:34PM 32.7780 -96.9820 144° Southeast 256 295 4,500 2,220 Climbing FlightAware
08:34PM 32.7740 -96.9700 112° Southeast 261 300 4,900 2,400 Climbing FlightAware
08:34PM 32.7650 -96.9270 104° East 270 311 6,100 2,400 Climbing FlightAware
08:35PM 32.7810 -96.8620 74° East 284 327 7,800 2,400 Climbing FlightAware
08:35PM 32.7890 -96.8390 68° East 284 327 8,500 2,580 Climbing FlightAware
08:36PM 32.8020 -96.8040 66° East 283 326 9,600 1,920 Climbing FlightAware
08:36PM 32.8250 -96.7410 67° East 309 356 10,700 1,260 Climbing FlightAware
08:37PM 32.8520 -96.6650 67° East 348 400 11,500 1,200 Climbing FlightAware
08:38PM 32.8770 -96.5930 68° East 373 429 12,400 1,620 Climbing FlightAware
08:39PM 32.9080 -96.5070 67° East 387 445 13,800 1,920 Climbing FlightAware
08:39PM 32.9360 -96.4290 67° East 399 459 15,100 2,160 Climbing FlightAware
08:40PM 32.9670 -96.3380 68° East 406 467 16,800 2,160 Climbing FlightAware
08:41PM 32.9820 -96.2490 79° East 411 473 18,200 1,920 Climbing FlightAware
08:41PM 32.9930 -96.1690 81° East 419 482 19,400 1,920 Climbing FlightAware
08:42PM 33.0080 -96.0580 81° East 428 493 20,900 1,800 Climbing FlightAware
08:43PM 33.0210 -95.9630 81° East 439 505 22,000 1,620 Climbing FlightAware
08:43PM 33.0360 -95.8560 80° East 448 516 23,200 1,560 Climbing FlightAware
08:44PM 33.0490 -95.7570 81° East 454 522 24,300 1,560 Climbing FlightAware
08:45PM 33.0630 -95.6490 81° East 461 531 25,400 1,440 Climbing FlightAware
08:46PM 33.0780 -95.5570 79° East 468 539 26,300 1,560 Climbing FlightAware
08:46PM 33.1090 -95.4510 71° East 468 539 27,500 1,620 Climbing FlightAware
08:47PM 33.1410 -95.3420 71° East 470 541 28,600 1,680 Climbing FlightAware
08:48PM 33.1710 -95.2430 70° East 463 533 30,000 1,800 Climbing FlightAware
08:48PM 33.2040 -95.1330 70° East 459 528 31,200 780 Climbing FlightAware
08:49PM 33.2290 -95.0510 70° East 459 528 31,200  Level FlightAware
08:50PM 33.2510 -94.9780 70° East 459 528 31,200 1,980 Level FlightAware
08:50PM 33.2900 -94.8410 71° East 460 529 33,900 2,340 Climbing FlightAware
08:51PM 33.3170 -94.7510 70° East 462 532 34,500 960 Climbing FlightAware
08:52PM 33.3480 -94.6450 71° East 465 535 35,200 480 Climbing FlightAware
08:53PM 33.3760 -94.5530 70° East 466 536 35,300 540 Climbing FlightAware
08:53PM 33.4150 -94.4190 71° East 473 544 36,100 480 Climbing FlightAware
08:54PM 33.4450 -94.3200 70° East 473 544 36,100  Level FlightAware
08:55PM 33.4680 -94.2430 70° East 473 544 36,100  Level FlightAware
08:55PM 33.4920 -94.1630 70° East 473 544 36,100  Level FlightAware
08:56PM 33.5240 -94.0610 69° East 473 544 36,100 540 Level FlightAware
08:57PM 33.5870 -93.8860 67° East 476 548 37,000 840 Climbing FlightAware
08:57PM 33.6069 -93.8342 65° Northeast 476 548 37,000  Level FlightAware ADS-B
08:58PM 33.6460 -93.7330 65° Northeast 476 548 37,000  Level FlightAware
08:59PM 33.6840 -93.6350 65° Northeast 476 548 37,000  Level FlightAware
09:00PM 33.7210 -93.5410 65° Northeast 476 548 37,000  Level FlightAware
09:00PM 33.7530 -93.4580 65° Northeast 476 548 37,000  Level FlightAware
09:01PM 33.7800 -93.3880 65° Northeast 476 548 37,000  Level FlightAware
09:02PM 33.8200 -93.2840 65° Northeast 476 548 37,000  Level FlightAware
09:02PM 33.8500 -93.2080 65° Northeast 476 548 37,000  Level FlightAware
09:03PM 33.8880 -93.1100 65° Northeast 476 548 37,000  Level FlightAware
09:04PM 33.9180 -93.0310 65° Northeast 476 548 37,000  Level FlightAware
09:04PM 33.9450 -92.9610 65° Northeast 476 548 37,000  Level FlightAware
09:05PM 33.9930 -92.8380 65° Northeast 476 548 37,000  Level FlightAware
09:06PM 34.0300 -92.7420 65° Northeast 476 548 37,000  Level FlightAware
09:07PM 34.0580 -92.6680 65° Northeast 476 548 37,000  Level FlightAware
09:07PM 33.9536 -92.3981 65° Northeast 456 525 37,000  Level Memphis Center
09:08PM 34.0100 -92.2592 64° Northeast 461 531 37,000  Level Memphis Center
09:09PM 34.0664 -92.1175 64° Northeast 461 531 37,000  Level Memphis Center
09:10PM 34.1206 -91.9781 65° Northeast 461 531 37,000 -60 Level Memphis Center
09:11PM 34.1722 -91.8458 65° Northeast 454 522 36,900  Descending Memphis Center
09:12PM 34.2325 -91.6936 64° Northeast 447 514 37,000  Climbing Memphis Center
09:13PM 34.2881 -91.5539 64° Northeast 440 506 37,000  Level Memphis Center
09:14PM 34.3436 -91.4161 64° Northeast 451 519 37,000  Level Memphis Center
09:15PM 34.3969 -91.2758 65° Northeast 451 519 37,000  Level Memphis Center
09:16PM 34.4519 -91.1431 63° Northeast 446 513 37,000  Level Memphis Center
09:17PM 34.4986 -91.0200 65° Northeast 441 507 37,000  Level Memphis Center
09:18PM 34.5514 -90.8817 65° Northeast 441 507 37,000  Level Memphis Center
09:19PM 34.6042 -90.7431 65° Northeast 441 507 37,000  Level Memphis Center
09:20PM 34.6586 -90.6044 64° Northeast 441 507 37,000  Level Memphis Center
09:21PM 34.7131 -90.4633 65° Northeast 441 507 37,000  Level Memphis Center
09:22PM 34.7653 -90.3294 65° Northeast 441 507 37,000  Level Memphis Center
09:23PM 34.8236 -90.1750 65° Northeast 441 507 37,000  Level Memphis Center
09:24PM 34.8775 -90.0381 64° Northeast 443 510 37,000  Level Memphis Center
09:25PM 34.9333 -89.8936 65° Northeast 448 516 37,000  Level Memphis Center
09:26PM 34.9933 -89.7461 64° Northeast 459 528 37,000  Level Memphis Center
09:27PM 35.0322 -89.6167 70° East 464 534 37,000  Level Memphis Center
09:28PM 35.0833 -89.4764 66° East 452 520 37,000  Level Memphis Center
09:29PM 35.1367 -89.3339 65° Northeast 452 520 37,000  Level Memphis Center
09:30PM 35.1894 -89.1883 66° East 460 529 37,000  Level Memphis Center
09:31PM 35.2403 -89.0453 66° East 460 529 37,000  Level Memphis Center
09:32PM 35.2969 -88.8892 66° East 460 529 37,000  Level Memphis Center
09:38PM 35.5860 -88.0840 66° East 444 511 37,000  Level FlightAware
09:39PM 35.6150 -88.0050 66° East 444 511 37,000  Level FlightAware
09:40PM 35.6740 -87.8360 67° East 443 510 37,000  Level FlightAware
09:40PM 35.6980 -87.7690 66° East 443 510 37,000  Level FlightAware
09:41PM 35.7410 -87.6430 67° East 443 510 37,000  Level FlightAware
09:42PM 35.7780 -87.5360 67° East 446 513 37,000  Level FlightAware
09:43PM 35.8120 -87.4380 67° East 448 516 37,000  Level FlightAware
09:43PM 35.8440 -87.3470 67° East 450 518 37,000  Level FlightAware
09:44PM 35.8814 -87.2378 67° East 455 524 37,000  Level FlightAware ADS-B
09:45PM 35.9063 -87.1659 67° East 457 526 37,000  Level FlightAware ADS-B
09:45PM 35.9313 -87.0931 67° East 457 526 37,000  Level FlightAware ADS-B
09:46PM 35.9564 -87.0200 67° East 459 528 37,000  Level FlightAware ADS-B
09:46PM 35.9819 -86.9456 67° East 467 537 37,000  Level FlightAware ADS-B
09:47PM 36.0073 -86.8705 67° East 470 541 37,000  Level FlightAware ADS-B
09:47PM 36.0325 -86.7962 67° East 471 542 37,000  Level FlightAware ADS-B
09:48PM 36.0577 -86.7217 67° East 470 541 37,000  Level FlightAware ADS-B
09:48PM 36.0851 -86.6406 67° East 469 540 37,000  Level FlightAware ADS-B
09:49PM 36.1103 -86.5656 67° East 467 537 37,000  Level FlightAware ADS-B
09:49PM 36.1363 -86.4888 67° East 465 535 37,000  Level FlightAware ADS-B
09:50PM 36.1613 -86.4145 67° East 462 532 37,000  Level FlightAware ADS-B
09:50PM 36.1859 -86.3404 68° East 459 528 37,000  Level FlightAware ADS-B
09:51PM 36.2107 -86.2652 68° East 458 527 37,000  Level FlightAware ADS-B
09:52PM 36.2666 -86.0975 67° East 451 519 37,000  Level FlightAware ADS-B
09:52PM 36.2905 -86.0258 68° East 449 517 37,000  Level FlightAware ADS-B
09:53PM 36.3140 -85.9542 68° East 449 517 37,000  Level FlightAware ADS-B
09:53PM 36.3430 -85.8666 68° East 448 516 37,000  Level FlightAware ADS-B
09:54PM 36.3668 -85.7942 68° East 447 514 37,000  Level FlightAware ADS-B
09:55PM 36.4119 -85.6567 68° East 446 513 37,000  Level FlightAware ADS-B
09:55PM 36.4353 -85.5851 68° East 445 512 37,000  Level FlightAware ADS-B
09:56PM 36.4589 -85.5129 68° East 446 513 37,000  Level FlightAware ADS-B
09:56PM 36.4827 -85.4390 68° East 447 514 37,000  Level FlightAware ADS-B
09:57PM 36.5198 -85.3239 68° East 447 514 37,000  Level FlightAware ADS-B
09:58PM 36.5433 -85.2511 68° East 446 513 37,000  Level FlightAware ADS-B
09:58PM 36.5705 -85.1670 68° East 446 513 37,000  Level FlightAware ADS-B
09:59PM 36.5936 -85.0952 68° East 452 520 37,000  Level FlightAware ADS-B
10:00PM 36.6238 -85.0006 68° East 456 525 37,000  Level FlightAware ADS-B
10:00PM 36.6483 -84.9233 68° East 458 527 37,000  Level FlightAware ADS-B
10:01PM 36.6723 -84.8479 68° East 459 528 37,000  Level FlightAware ADS-B
10:01PM 36.6987 -84.7648 68° East 459 528 37,000  Level FlightAware ADS-B
10:02PM 36.7269 -84.6758 68° East 460 529 37,000  Level FlightAware ADS-B
10:02PM 36.7505 -84.6007 69° East 460 529 37,000  Level FlightAware ADS-B
10:03PM 36.7750 -84.5228 69° East 460 529 37,000  Level FlightAware ADS-B
10:03PM 36.7983 -84.4486 69° East 460 529 37,000  Level FlightAware ADS-B
10:04PM 36.8213 -84.3745 69° East 460 529 37,000  Level FlightAware ADS-B
10:04PM 36.8447 -84.2997 69° East 464 534 37,000  Level FlightAware ADS-B
10:05PM 36.8688 -84.2234 68° East 477 549 37,000  Level FlightAware ADS-B
10:05PM 36.8928 -84.1459 69° East 483 556 37,000  Level FlightAware ADS-B
10:06PM 36.9174 -84.0655 69° East 484 557 37,000  Level FlightAware ADS-B
10:06PM 36.9424 -83.9837 69° East 486 559 37,000  Level FlightAware ADS-B
10:07PM 36.9757 -83.8754 69° East 487 560 37,000  Level FlightAware ADS-B
10:08PM 37.0005 -83.7957 69° East 490 564 37,000  Level FlightAware ADS-B
10:08PM 37.0297 -83.7002 69° East 490 564 37,000  Level FlightAware ADS-B
10:09PM 37.0567 -83.6116 69° East 490 564 37,000  Level FlightAware ADS-B
10:09PM 37.0812 -83.5310 69° East 491 565 37,000  Level FlightAware ADS-B
10:10PM 37.1060 -83.4491 69° East 493 567 37,000  Level FlightAware ADS-B
10:10PM 37.1313 -83.3654 69° East 496 571 37,000  Level FlightAware ADS-B
10:11PM 37.1562 -83.2827 69° East 499 574 37,000  Level FlightAware ADS-B
10:11PM 37.1809 -83.2001 69° East 502 578 37,000  Level FlightAware ADS-B
10:12PM 37.2108 -83.1001 69° East 504 580 37,000  Level FlightAware ADS-B
10:12PM 37.2374 -83.0107 69° East 507 583 37,000  Level FlightAware ADS-B
10:13PM 37.2905 -82.8321 69° East 506 582 37,000  Level FlightAware ADS-B
10:14PM 37.3262 -82.7108 70° East 502 578 37,000  Level FlightAware ADS-B
10:15PM 37.3519 -82.6236 70° East 504 580 37,000  Level FlightAware ADS-B
10:15PM 37.3762 -82.5402 70° East 505 581 37,000  Level FlightAware ADS-B
10:16PM 37.4052 -82.4412 70° East 505 581 37,000  Level FlightAware ADS-B
10:17PM 37.4429 -82.3120 70° East 507 583 37,000  Level FlightAware ADS-B
10:17PM 37.4769 -82.1943 70° East 507 583 37,000  Level FlightAware ADS-B
10:18PM 37.5023 -82.1062 70° East 507 583 37,000  Level FlightAware ADS-B
10:18PM 37.5268 -82.0210 70° East 499 574 37,000  Level FlightAware ADS-B
10:19PM 37.5590 -81.9080 70° East 494 568 37,000  Level FlightAware
10:20PM 37.5799 -81.8351 70° East 487 560 37,000  Level FlightAware ADS-B
10:20PM 37.6230 -81.6840 70° East 488 562 37,000  Level FlightAware
10:21PM 37.6530 -81.5790 70° East 488 562 37,000  Level FlightAware
10:22PM 37.6717 -81.5119 71° East 488 562 37,000  Level FlightAware ADS-B
10:22PM 37.7082 -81.3824 70° East 488 562 37,000  Level FlightAware ADS-B
10:23PM 37.7490 -81.2350 71° East 488 562 37,000  Level FlightAware
10:24PM 37.7770 -81.1290 71° East 488 562 37,000  Level FlightAware
10:25PM 37.7940 -81.0030 80° East 499 574 37,000  Level FlightAware
10:25PM 37.7998 -80.9552 81° East 500 575 37,000  Level FlightAware ADS-B
10:26PM 37.8249 -80.7381 82° East 501 577 37,000  Level FlightAware ADS-B
10:27PM 37.8360 -80.6430 82° East 511 588 37,000  Level FlightAware
10:27PM 37.8500 -80.5130 82° East 514 592 37,000  Level FlightAware
10:28PM 37.8710 -80.3850 78° East 517 595 37,000  Level FlightAware
10:29PM 37.9110 -80.2730 66° East 518 596 37,000  Level FlightAware
10:30PM 37.9560 -80.1550 64° Northeast 518 596 37,000  Level FlightAware
10:30PM 37.9640 -80.1350 63° Northeast 517 595 37,000  Level FlightAware
10:31PM 38.0410 -79.9370 64° Northeast 520 598 37,000  Level FlightAware
10:32PM 38.0880 -79.8150 64° Northeast 521 600 37,000  Level FlightAware
10:32PM 38.1290 -79.7080 64° Northeast 521 600 37,000 -240 Level FlightAware
10:34PM 38.2030 -79.5150 64° Northeast 519 597 36,600 -1,260 Descending FlightAware
10:34PM 38.2440 -79.4080 64° Northeast 525 604 34,700 -3,120 Descending FlightAware
10:35PM 38.2790 -79.2890 69° East 530 610 32,500 -2,880 Descending FlightAware
10:36PM 38.3090 -79.1730 72° East 514 592 30,900 -2,280 Descending FlightAware
10:36PM 38.3410 -79.0490 72° East 484 557 29,300 -2,220 Descending FlightAware
10:37PM 38.3700 -78.9360 72° East 475 547 27,800 -1,980 Descending FlightAware
10:38PM 38.3990 -78.8260 71° East 461 531 26,600 -1,500 Descending FlightAware
10:38PM 38.4270 -78.7150 72° East 451 519 25,700 -1,260 Descending FlightAware
10:39PM 38.4520 -78.6180 72° East 441 507 24,900 -1,200 Descending FlightAware
10:40PM 38.4820 -78.5020 72° East 438 504 24,000 -1,020 Descending FlightAware
10:43PM 38.5850 -78.0910 72° East 421 484 20,700 -1,140 Descending FlightAware
10:44PM 38.6360 -77.8830 73° East 413 475 19,100 -1,260 Descending FlightAware
10:45PM 38.6460 -77.7820 83° East 410 472 19,000 -660 Descending FlightAware
10:46PM 38.6530 -77.6770 85° East 406 467 18,200 -960 Descending FlightAware
10:46PM 38.6580 -77.5990 85° East 404 465 17,700 -960 Descending FlightAware
10:47PM 38.6640 -77.4950 86° East 400 460 17,000 -1,020 Descending FlightAware
10:48PM 38.6710 -77.3800 86° East 384 442 16,300 -720 Descending FlightAware
10:48PM 38.6760 -77.2930 86° East 353 406 16,000 -1,200 Descending FlightAware
10:49PM 38.6800 -77.2070 87° East 354 407 14,700 -1,800 Descending FlightAware
10:50PM 38.6860 -77.1150 85° East 350 403 13,500 -1,620 Descending FlightAware
10:50PM 38.6900 -77.0280 87° East 343 395 12,400 -1,440 Descending FlightAware
10:51PM 38.6940 -76.9540 86° East 334 384 11,600 -1,320 Descending FlightAware
10:52PM 38.6990 -76.8800 85° East 323 372 10,800 -1,260 Descending FlightAware
10:53PM 38.7040 -76.7840 86° East 313 360 9,800 -1,200 Descending FlightAware
10:53PM 38.7090 -76.7420 81° East 304 350 9,300 -1,320 Descending FlightAware
10:53PM 38.7260 -76.6980 64° Northeast 295 339 8,700 -1,260 Descending FlightAware
10:54PM 38.7470 -76.6500 61° Northeast 290 334 8,100 -1,260 Descending FlightAware
10:54PM 38.7540 -76.6340 61° Northeast 287 330 7,800 -960 Descending FlightAware
10:55PM 38.7700 -76.5970 61° Northeast 284 327 7,300 -1,140 Descending FlightAware
10:55PM 38.8020 -76.5340 57° Northeast 256 295 6,500 -1,320 Descending FlightAware
10:56PM 38.8290 -76.5240 16° North 230 265 6,100 -1,440 Descending FlightAware
10:56PM 38.8560 -76.5320 347° North 221 254 5,300 -1,500 Descending FlightAware
10:57PM 38.8800 -76.5400 345° North 209 241 4,800 -1,080 Descending FlightAware
10:57PM 38.9080 -76.5480 347° North 201 231 4,300 -840 Descending FlightAware
10:58PM 38.9350 -76.5560 347° North 182 209 4,000 -540 Descending FlightAware
10:58PM 38.9550 -76.5620 347° North 182 209 3,800 -480 Descending FlightAware
10:59PM 39.0080 -76.5790 346° North 174 200 3,300 -300 Descending FlightAware
11:00PM 39.0310 -76.5870 345° North 170 196 3,300 -480 Level FlightAware
11:01PM 39.0700 -76.5990 347° North 166 191 2,600 -720 Descending FlightAware